Elkhart, IN (46514)

9:52 PM EDT on March 29, 2017 (GMT -0400)
Martins Landing | | Change Station

Elev 741 ft 41.69 °N, 85.95 °W | Updated 30 seconds ago

Overcast
Overcast
48.5 °F
Feels Like 47 °F
N
4.0
Wind Variable Wind from ESE

Today
High -- | Low -- °F
--% Chance of Precip.
Yesterday
High -- | Low -- °F
Precip. -- in
Pressure 30.08 in
Visibility 10.0 miles
Clouds Scattered Clouds 700 ft
Scattered Clouds 1300 ft
Scattered Clouds 2000 ft
Windchill 47 °F
Dew Point 36 °F
Humidity 63%
Rainfall 0.00 in
Snow Depth Not available.
7:31 AM 8:06 PM
Waxing Crescent, 5% visible
METAR KEKM 300050Z 10012KT G20KT 10SM -RA SCT007 SCT013 SCT020 09/02 A3008 RMK LAST
Pressure 30.08 in
Visibility 10.0 miles
Clouds Scattered Clouds 700 ft
Scattered Clouds 1300 ft
Scattered Clouds 2000 ft
Windchill 47 °F
Dew Point 36 °F
Humidity 63%
Rainfall 0.00 in
Snow Depth Not available.
7:31 AM 8:06 PM
Waxing Crescent, 5% visible
METAR KEKM 300050Z 10012KT G20KT 10SM -RA SCT007 SCT013 SCT020 09/02 A3008 RMK LAST

Get Severe Weather Alerts

Thanks for signing up!

Be on the lookout for a verification email in your inbox.

You'll start receiving the daily forecast at 8 AM.

×

10-Day Weather Forecast

Almanac

Astronomy

Mar. 29, 2017 Rise Set
Actual Time
Civil Twilight
Nautical Twilight
Astronomical Twilight
Moon
Length of Visible Light
Length of Day
Tomorrow will be .
, % of the Moon is Illuminated

Today's Extremes

State Highs State Lows

Community

WunderPhotos

Upload Photos

1,962,540 photos uploaded!

WunderBlog® & News

Nearby

Air Quality

  Air Quality AQ Index Pollutant
Not available.

Snow Depth

Station Depth Elevation

Earthquake Activity

City Distance Mag. Time & Date
Minimum magnitude displayed is 2.5.

Earthquake Activity

City Distance Mag. Time & Date
Minimum magnitude displayed is 2.5.

Coastal Water Temperatures

Place Temperature

Stations

Nearby Weather Stations

Station Location Temp. Windchill Dew Point Humidity Wind Precip. Elev Updated Type
                   

Watches & Warnings

There are currently no watches in effect.